Time;durP1;ratioP1;P1;durP2;ratioP2;P2;SDS_P1;SDS_P2;PMS_P1;PMS_P2;Temp;Humidity;BMP_temperature;BMP_pressure;BME280_temperature;BME280_humidity;BME280_pressure;Samples;Min_cycle;Max_cycle;Signal;HPM_P1;HPM_P2
2023/11/15 00:00:57;;;;;;;;;;;;;;;;;;2196743;59;3609;-21
2023/11/15 00:03:28;;;;;;;;;;;;;;;;;;2196839;59;2668;-21
2023/11/15 00:05:58;;;;;;;;;;;;;;;;;;2196847;67;2519;-21
2023/11/15 00:08:29;;;;;;;;;;;;;;;;;;2197216;59;2461;-21
2023/11/15 00:10:59;;;;;;;;;;;;;;;;;;2196142;67;2292;-21
2023/11/15 00:13:29;;;;;;;;;;;;;;;;;;2196818;59;2877;-21
2023/11/15 00:15:59;;;;;;;;;;;;;;;;;;2196813;59;1981;-21
2023/11/15 00:18:30;;;;;;;;;;;;;;;;;;2196180;59;6566;-20
2023/11/15 00:21:00;;;;;;;;;;;;;;;;;;2196659;67;3426;-21
2023/11/15 00:23:30;;;;;;;;;;;;;;;;;;2196676;67;1897;-21
2023/11/15 00:28:35;;;;;;;;;;;;;;;;;;2198630;59;2807;-24
2023/11/15 00:31:06;;;;;;;;;;;;;;;;;;2199800;59;2447;-24
2023/11/15 00:33:36;;;;;;;;;;;;;;;;;;2200750;59;3489;-24
2023/11/15 00:36:11;;;;;;;;;;;;;;;;;;2198172;59;1994;-24
2023/11/15 00:38:41;;;;;;;;;;;;;;;;;;2196479;59;2136;-24
2023/11/15 00:41:11;;;;;;;;;;;;;;;;;;2196255;59;2480;-24
2023/11/15 00:43:44;;;;;;;;;;;;;;;;;;2196187;67;3742;-24
2023/11/15 00:46:15;;;;;;;;;;;;;;;;;;2194954;67;3534;-24
2023/11/15 00:48:45;;;;;;;;;;;;;;;;;;2195832;67;4110;-24
2023/11/15 00:51:16;;;;;;;;;;;;;;;;;;2194887;67;2260;-24
2023/11/15 00:53:46;;;;;;;;;;;;;;;;;;2196609;59;2179;-24
2023/11/15 00:56:17;;;;;;;;;;;;;;;;;;2195370;67;3409;-25
2023/11/15 00:58:47;;;;;;;;;;;;;;;;;;2195778;67;2634;-25
2023/11/15 01:01:17;;;;;;;;;;;;;;;;;;2195489;67;3993;-24
2023/11/15 01:03:55;;;;;;;;;;;;;;;;;;2196871;59;1865;-24
2023/11/15 01:06:26;;;;;;;;;;;;;;;;;;2196628;59;2613;-25
2023/11/15 01:08:56;;;;;;;;;;;;;;;;;;2197420;67;2246;-25
2023/11/15 01:11:28;;;;;;;;;;;;;;;;;;2196001;59;2053;-25
2023/11/15 01:13:59;;;;;;;;;;;;;;;;;;2193389;59;2319;-25
2023/11/15 01:16:30;;;;;;;;;;;;;;;;;;2195769;59;2299;-25
2023/11/15 01:19:00;;;;;;;;;;;;;;;;;;2195712;59;1982;-25
2023/11/15 01:21:31;;;;;;;;;;;;;;;;;;2196385;67;2119;-25
2023/11/15 01:24:01;;;;;;;;;;;;;;;;;;2196119;59;1838;-25
2023/11/15 01:26:33;;;;;;;;;;;;;;;;;;2195004;59;3430;-25
2023/11/15 01:29:04;;;;;;;;;;;;;;;;;;2192761;59;3665;-25
2023/11/15 01:31:35;;;;;;;;;;;;;;;;;;2195892;59;2495;-25
2023/11/15 01:34:06;;;;;;;;;;;;;;;;;;2195083;67;4480;-25
2023/11/15 01:36:36;;;;;;;;;;;;;;;;;;2196347;59;3285;-25
2023/11/15 01:39:07;;;;;;;;;;;;;;;;;;2195420;59;2499;-25
2023/11/15 01:41:37;;;;;;;;;;;;;;;;;;2195488;60;1807;-25
2023/11/15 01:44:07;;;;;;;;;;;;;;;;;;2195654;59;2192;-25
2023/11/15 01:46:37;;;;;;;;;;;;;;;;;;2196584;59;1847;-25
2023/11/15 01:49:08;;;;;;;;;;;;;;;;;;2195363;59;3944;-25
2023/11/15 01:51:38;;;;;;;;;;;;;;;;;;2196351;59;1769;-25
2023/11/15 01:54:11;;;;;;;;;;;;;;;;;;2194116;60;3822;-25
2023/11/15 01:56:42;;;;;;;;;;;;;;;;;;2195334;67;2642;-25
2023/11/15 01:59:13;;;;;;;;;;;;;;;;;;2193930;67;3173;-25
2023/11/15 02:01:43;;;;;;;;;;;;;;;;;;2195343;67;3511;-25
2023/11/15 02:04:13;;;;;;;;;;;;;;;;;;2193000;59;3506;-25
2023/11/15 02:06:43;;;;;;;;;;;;;;;;;;2194796;67;1957;-25
2023/11/15 02:09:14;;;;;;;;;;;;;;;;;;2192895;67;2258;-25
2023/11/15 02:11:44;;;;;;;;;;;;;;;;;;2194724;59;3405;-25
2023/11/15 02:14:14;;;;;;;;;;;;;;;;;;2193025;60;2183;-25
2023/11/15 02:16:45;;;;;;;;;;;;;;;;;;2194954;67;1972;-25
2023/11/15 02:19:15;;;;;;;;;;;;;;;;;;2193947;67;2534;-25
2023/11/15 02:21:46;;;;;;;;;;;;;;;;;;2195637;67;2809;-25
2023/11/15 02:24:16;;;;;;;;;;;;;;;;;;2193445;59;2857;-25
2023/11/15 02:26:49;;;;;;;;;;;;;;;;;;2194739;59;2248;-25
2023/11/15 02:29:19;;;;;;;;;;;;;;;;;;2193406;59;3083;-25
2023/11/15 02:31:49;;;;;;;;;;;;;;;;;;2195519;59;1802;-25
2023/11/15 02:34:19;;;;;;;;;;;;;;;;;;2190039;67;3931;-25
2023/11/15 02:36:50;;;;;;;;;;;;;;;;;;2193130;67;3514;-25
2023/11/15 02:39:20;;;;;;;;;;;;;;;;;;2195362;59;2624;-25
2023/11/15 02:41:50;;;;;;;;;;;;;;;;;;2195496;59;2952;-25
2023/11/15 02:44:21;;;;;;;;;;;;;;;;;;2193309;59;2036;-25
2023/11/15 02:46:51;;;;;;;;;;;;;;;;;;2195289;59;2820;-25
2023/11/15 02:49:21;;;;;;;;;;;;;;;;;;2194193;67;3440;-25
2023/11/15 02:51:51;;;;;;;;;;;;;;;;;;2195472;67;3830;-25
2023/11/15 02:54:21;;;;;;;;;;;;;;;;;;2193531;67;3564;-25
2023/11/15 02:56:52;;;;;;;;;;;;;;;;;;2193782;59;2647;-25
2023/11/15 02:59:22;;;;;;;;;;;;;;;;;;2193741;67;4086;-25
2023/11/15 03:01:53;;;;;;;;;;;;;;;;;;2195394;59;2206;-25
2023/11/15 03:04:23;;;;;;;;;;;;;;;;;;2194179;67;2476;-25
2023/11/15 03:06:54;;;;;;;;;;;;;;;;;;2195113;67;1981;-25
2023/11/15 03:09:24;;;;;;;;;;;;;;;;;;2192898;59;3691;-25
2023/11/15 03:11:54;;;;;;;;;;;;;;;;;;2194995;67;1988;-25
2023/11/15 03:14:25;;;;;;;;;;;;;;;;;;2194270;67;1999;-25
2023/11/15 03:17:05;;;;;;;;;;;;;;;;;;2196352;64;2145;-24
2023/11/15 03:19:35;;;;;;;;;;;;;;;;;;2195197;63;2147;-24
2023/11/15 03:22:05;;;;;;;;;;;;;;;;;;2196734;67;2665;-24
2023/11/15 03:24:37;;;;;;;;;;;;;;;;;;2195720;67;4939;-24
2023/11/15 03:27:08;;;;;;;;;;;;;;;;;;2193225;60;1899;-24
2023/11/15 03:29:38;;;;;;;;;;;;;;;;;;2194216;67;2854;-24
2023/11/15 03:32:08;;;;;;;;;;;;;;;;;;2195928;59;2435;-24
2023/11/15 03:34:40;;;;;;;;;;;;;;;;;;2192967;67;3899;-24
2023/11/15 03:37:11;;;;;;;;;;;;;;;;;;2196778;67;2668;-24
2023/11/15 03:39:41;;;;;;;;;;;;;;;;;;2197166;59;2373;-24
2023/11/15 03:42:12;;;;;;;;;;;;;;;;;;2196216;59;3185;-24
2023/11/15 03:44:42;;;;;;;;;;;;;;;;;;2195916;67;2995;-24
2023/11/15 03:47:12;;;;;;;;;;;;;;;;;;2196222;67;2723;-24
2023/11/15 03:49:42;;;;;;;;;;;;;;;;;;2194921;67;2088;-24
2023/11/15 03:52:12;;;;;;;;;;;;;;;;;;2194648;67;2323;-24
2023/11/15 03:54:43;;;;;;;;;;;;;;;;;;2195697;67;3564;-24
2023/11/15 03:57:13;;;;;;;;;;;;;;;;;;2192484;67;2793;-24
2023/11/15 03:59:43;;;;;;;;;;;;;;;;;;2195542;67;2929;-24
2023/11/15 04:02:14;;;;;;;;;;;;;;;;;;2195549;59;2379;-24
2023/11/15 04:04:45;;;;;;;;;;;;;;;;;;2196992;67;2900;-24
2023/11/15 04:07:15;;;;;;;;;;;;;;;;;;2195598;67;3882;-24
2023/11/15 04:09:45;;;;;;;;;;;;;;;;;;2196870;59;3445;-24
2023/11/15 04:12:16;;;;;;;;;;;;;;;;;;2195945;59;3282;-24
2023/11/15 04:14:46;;;;;;;;;;;;;;;;;;2196341;59;2342;-24
2023/11/15 04:17:17;;;;;;;;;;;;;;;;;;2195426;64;3096;-24
2023/11/15 04:19:47;;;;;;;;;;;;;;;;;;2195729;67;3283;-24
2023/11/15 04:22:18;;;;;;;;;;;;;;;;;;2194844;67;2230;-24
2023/11/15 04:24:49;;;;;;;;;;;;;;;;;;2195675;67;1902;-24
2023/11/15 04:27:19;;;;;;;;;;;;;;;;;;2195231;59;2320;-24
2023/11/15 04:29:49;;;;;;;;;;;;;;;;;;2195185;59;2519;-24
2023/11/15 04:32:19;;;;;;;;;;;;;;;;;;2195068;59;2237;-24
2023/11/15 04:34:49;;;;;;;;;;;;;;;;;;2196248;67;3480;-24
2023/11/15 04:37:20;;;;;;;;;;;;;;;;;;2194285;67;2379;-24
2023/11/15 04:39:51;;;;;;;;;;;;;;;;;;2195554;59;2345;-24
2023/11/15 04:42:21;;;;;;;;;;;;;;;;;;2194616;59;3612;-24
2023/11/15 04:44:52;;;;;;;;;;;;;;;;;;2195099;59;2201;-24
2023/11/15 04:47:22;;;;;;;;;;;;;;;;;;2194921;67;2345;-24
2023/11/15 04:49:52;;;;;;;;;;;;;;;;;;2196006;59;2331;-24
2023/11/15 04:52:22;;;;;;;;;;;;;;;;;;2194894;67;2849;-24
2023/11/15 04:54:54;;;;;;;;;;;;;;;;;;2194886;59;2692;-24
2023/11/15 04:57:25;;;;;;;;;;;;;;;;;;2194146;59;3466;-24
2023/11/15 04:59:55;;;;;;;;;;;;;;;;;;2195607;67;2368;-24
2023/11/15 05:02:27;;;;;;;;;;;;;;;;;;2194970;59;2026;-24
2023/11/15 05:04:57;;;;;;;;;;;;;;;;;;2195710;59;2654;-24
2023/11/15 05:07:32;;;;;;;;;;;;;;;;;;2194169;67;1849;-24
2023/11/15 05:10:04;;;;;;;;;;;;;;;;;;2194570;67;2035;-24
2023/11/15 05:12:34;;;;;;;;;;;;;;;;;;2193831;60;1970;-24
2023/11/15 05:15:05;;;;;;;;;;;;;;;;;;2191773;59;2189;-24
2023/11/15 05:17:36;;;;;;;;;;;;;;;;;;2193898;67;2530;-24
2023/11/15 05:20:06;;;;;;;;;;;;;;;;;;2195732;59;3870;-24
2023/11/15 05:22:37;;;;;;;;;;;;;;;;;;2193928;67;3755;-24
2023/11/15 05:25:07;;;;;;;;;;;;;;;;;;2191725;67;2140;-24
2023/11/15 05:27:38;;;;;;;;;;;;;;;;;;2193524;67;3525;-24
2023/11/15 05:30:08;;;;;;;;;;;;;;;;;;2195394;59;3354;-24
2023/11/15 05:32:38;;;;;;;;;;;;;;;;;;2194523;59;1998;-24
2023/11/15 05:35:10;;;;;;;;;;;;;;;;;;2195239;59;2905;-24
2023/11/15 05:37:40;;;;;;;;;;;;;;;;;;2194801;59;2209;-24
2023/11/15 05:40:12;;;;;;;;;;;;;;;;;;2196338;59;1924;-24
2023/11/15 05:42:43;;;;;;;;;;;;;;;;;;2192121;67;2153;-24
2023/11/15 05:45:14;;;;;;;;;;;;;;;;;;2195053;59;3583;-24
2023/11/15 05:47:44;;;;;;;;;;;;;;;;;;2194301;59;4817;-24
2023/11/15 05:50:14;;;;;;;;;;;;;;;;;;2195963;67;2173;-24
2023/11/15 05:52:45;;;;;;;;;;;;;;;;;;2195233;67;4178;-24
2023/11/15 05:55:15;;;;;;;;;;;;;;;;;;2195737;67;2758;-24
2023/11/15 05:57:46;;;;;;;;;;;;;;;;;;2194802;67;3039;-24
2023/11/15 06:00:20;;;;;;;;;;;;;;;;;;2195954;67;4199;-24
2023/11/15 06:02:50;;;;;;;;;;;;;;;;;;2195281;59;2449;-24
2023/11/15 06:05:20;;;;;;;;;;;;;;;;;;2194631;67;2760;-24
2023/11/15 06:07:51;;;;;;;;;;;;;;;;;;2196145;59;3830;-24
2023/11/15 06:10:21;;;;;;;;;;;;;;;;;;2195266;67;1806;-24
2023/11/15 06:12:54;;;;;;;;;;;;;;;;;;2195873;67;3313;-24
2023/11/15 06:15:25;;;;;;;;;;;;;;;;;;2193031;67;3247;-24
2023/11/15 06:17:55;;;;;;;;;;;;;;;;;;2195012;59;3785;-24
2023/11/15 06:20:25;;;;;;;;;;;;;;;;;;2195004;67;2792;-24
2023/11/15 06:22:56;;;;;;;;;;;;;;;;;;2195949;67;3003;-24
2023/11/15 06:25:27;;;;;;;;;;;;;;;;;;2194250;67;4258;-24
2023/11/15 06:28:03;;;;;;;;;;;;;;;;;;2195651;59;2468;-24
2023/11/15 06:30:34;;;;;;;;;;;;;;;;;;2194625;59;2328;-24
2023/11/15 06:33:04;;;;;;;;;;;;;;;;;;2195326;67;1958;-24
2023/11/15 06:35:35;;;;;;;;;;;;;;;;;;2194815;59;2725;-24
2023/11/15 06:38:05;;;;;;;;;;;;;;;;;;2195830;67;3677;-24
2023/11/15 06:40:36;;;;;;;;;;;;;;;;;;2194749;59;4255;-24
2023/11/15 06:43:06;;;;;;;;;;;;;;;;;;2195370;67;2320;-24
2023/11/15 06:45:36;;;;;;;;;;;;;;;;;;2193407;67;2202;-24
2023/11/15 06:48:07;;;;;;;;;;;;;;;;;;2194933;59;2476;-24
2023/11/15 06:50:37;;;;;;;;;;;;;;;;;;2194005;59;4156;-24
2023/11/15 06:53:07;;;;;;;;;;;;;;;;;;2195797;67;2766;-24
2023/11/15 06:55:37;;;;;;;;;;;;;;;;;;2194792;67;2453;-24
2023/11/15 06:58:08;;;;;;;;;;;;;;;;;;2196694;59;2423;-24
2023/11/15 07:00:38;;;;;;;;;;;;;;;;;;2195631;59;3160;-24
2023/11/15 07:03:12;;;;;;;;;;;;;;;;;;2195891;59;1986;-24
2023/11/15 07:05:42;;;;;;;;;;;;;;;;;;2190801;59;2325;-24
2023/11/15 07:08:13;;;;;;;;;;;;;;;;;;2194913;67;2145;-25
2023/11/15 07:10:43;;;;;;;;;;;;;;;;;;2195564;67;1843;-25
2023/11/15 07:13:13;;;;;;;;;;;;;;;;;;2196190;59;2461;-24
2023/11/15 07:15:44;;;;;;;;;;;;;;;;;;2194723;59;3106;-24
2023/11/15 07:18:14;;;;;;;;;;;;;;;;;;2196260;67;2864;-24
2023/11/15 07:20:45;;;;;;;;;;;;;;;;;;2195623;67;3862;-24
2023/11/15 07:23:16;;;;;;;;;;;;;;;;;;2196418;67;1794;-24
2023/11/15 07:25:46;;;;;;;;;;;;;;;;;;2195560;59;2949;-24
2023/11/15 07:28:19;;;;;;;;;;;;;;;;;;2195726;59;2611;-24
2023/11/15 07:30:50;;;;;;;;;;;;;;;;;;2194432;59;2382;-24
2023/11/15 07:33:20;;;;;;;;;;;;;;;;;;2194979;59;2760;-24
2023/11/15 07:35:50;;;;;;;;;;;;;;;;;;2194268;67;2685;-24
2023/11/15 07:38:23;;;;;;;;;;;;;;;;;;2195783;60;2226;-24
2023/11/15 07:40:53;;;;;;;;;;;;;;;;;;2195202;59;2041;-24
2023/11/15 07:43:23;;;;;;;;;;;;;;;;;;2195055;59;3050;-24
2023/11/15 07:45:54;;;;;;;;;;;;;;;;;;2194320;67;2273;-24
2023/11/15 07:48:25;;;;;;;;;;;;;;;;;;2194123;67;2531;-24
2023/11/15 07:50:56;;;;;;;;;;;;;;;;;;2194384;59;2267;-24
2023/11/15 07:53:27;;;;;;;;;;;;;;;;;;2194245;59;4290;-24
2023/11/15 07:55:57;;;;;;;;;;;;;;;;;;2195018;67;2061;-24
2023/11/15 07:58:28;;;;;;;;;;;;;;;;;;2194160;67;3084;-24
2023/11/15 08:00:58;;;;;;;;;;;;;;;;;;2194816;59;3735;-24
2023/11/15 08:03:28;;;;;;;;;;;;;;;;;;2195084;59;2135;-24
2023/11/15 08:05:58;;;;;;;;;;;;;;;;;;2194831;59;2083;-24
2023/11/15 08:08:29;;;;;;;;;;;;;;;;;;2195165;60;2722;-24
2023/11/15 08:10:59;;;;;;;;;;;;;;;;;;2195593;67;3249;-24
2023/11/15 08:13:29;;;;;;;;;;;;;;;;;;2194774;67;2221;-24
2023/11/15 08:16:00;;;;;;;;;;;;;;;;;;2196209;67;2104;-24
2023/11/15 08:18:31;;;;;;;;;;;;;;;;;;2195264;67;3672;-24
2023/11/15 08:21:02;;;;;;;;;;;;;;;;;;2196278;67;3863;-24
2023/11/15 08:23:32;;;;;;;;;;;;;;;;;;2194248;67;3635;-24
2023/11/15 08:26:03;;;;;;;;;;;;;;;;;;2196199;67;2862;-24
2023/11/15 08:28:33;;;;;;;;;;;;;;;;;;2195066;59;2467;-24
2023/11/15 08:31:05;;;;;;;;;;;;;;;;;;2196039;59;2472;-24
2023/11/15 08:33:36;;;;;;;;;;;;;;;;;;2195472;59;2001;-24
2023/11/15 08:36:09;;;;;;;;;;;;;;;;;;2195443;67;4306;-24
2023/11/15 08:38:39;;;;;;;;;;;;;;;;;;2194809;59;3222;-24
2023/11/15 08:41:09;;;;;;;;;;;;;;;;;;2195813;59;2790;-24
2023/11/15 08:43:39;;;;;;;;;;;;;;;;;;2194764;59;2390;-24
2023/11/15 08:46:10;;;;;;;;;;;;;;;;;;2195858;67;2037;-24
2023/11/15 08:48:40;;;;;;;;;;;;;;;;;;2194892;67;2402;-24
2023/11/15 08:51:10;;;;;;;;;;;;;;;;;;2195443;67;1857;-24
2023/11/15 08:53:41;;;;;;;;;;;;;;;;;;2194625;59;2271;-24
2023/11/15 08:56:13;;;;;;;;;;;;;;;;;;2194789;59;2165;-24
2023/11/15 08:58:44;;;;;;;;;;;;;;;;;;2194888;67;3000;-24
2023/11/15 09:01:16;;;;;;;;;;;;;;;;;;2195463;59;2115;-24
2023/11/15 09:03:47;;;;;;;;;;;;;;;;;;2193745;59;2443;-24
2023/11/15 09:06:18;;;;;;;;;;;;;;;;;;2195951;59;2135;-25
2023/11/15 09:08:49;;;;;;;;;;;;;;;;;;2194562;59;2593;-24
2023/11/15 09:11:19;;;;;;;;;;;;;;;;;;2195560;67;2369;-24
2023/11/15 09:13:49;;;;;;;;;;;;;;;;;;2193080;59;2952;-24
2023/11/15 09:16:21;;;;;;;;;;;;;;;;;;2195136;59;4412;-24
2023/11/15 09:18:52;;;;;;;;;;;;;;;;;;2193859;59;2931;-24
2023/11/15 09:21:23;;;;;;;;;;;;;;;;;;2195683;59;2007;-24
2023/11/15 09:23:55;;;;;;;;;;;;;;;;;;2194300;62;2678;-24
2023/11/15 09:26:25;;;;;;;;;;;;;;;;;;2195405;59;2396;-24
2023/11/15 09:28:56;;;;;;;;;;;;;;;;;;2195485;59;2611;-24
2023/11/15 09:31:26;;;;;;;;;;;;;;;;;;2197316;59;2154;-24
2023/11/15 09:33:56;;;;;;;;;;;;;;;;;;2196200;67;2378;-24
2023/11/15 09:36:26;;;;;;;;;;;;;;;;;;2196359;59;2149;-24
2023/11/15 09:38:57;;;;;;;;;;;;;;;;;;2196407;59;2056;-24
2023/11/15 09:41:29;;;;;;;;;;;;;;;;;;2197754;59;2169;-24
2023/11/15 09:44:01;;;;;;;;;;;;;;;;;;2195903;59;1949;-24
2023/11/15 09:46:31;;;;;;;;;;;;;;;;;;2195826;67;2232;-24
2023/11/15 09:49:02;;;;;;;;;;;;;;;;;;2196084;59;2650;-24
2023/11/15 09:51:34;;;;;;;;;;;;;;;;;;2196415;67;2321;-24
2023/11/15 09:54:06;;;;;;;;;;;;;;;;;;2196333;59;2101;-24
2023/11/15 09:56:36;;;;;;;;;;;;;;;;;;2193269;59;2621;-24
2023/11/15 09:59:08;;;;;;;;;;;;;;;;;;2197151;59;2293;-24
2023/11/15 10:01:45;;;;;;;;;;;;;;;;;;2195157;59;3052;-24
2023/11/15 10:04:19;;;;;;;;;;;;;;;;;;2196369;59;2593;-24
2023/11/15 10:06:55;;;;;;;;;;;;;;;;;;2196200;59;2571;-24
2023/11/15 10:09:35;;;;;;;;;;;;;;;;;;2196663;59;2372;-24
2023/11/15 10:12:06;;;;;;;;;;;;;;;;;;2195962;59;2137;-25
2023/11/15 10:14:48;;;;;;;;;;;;;;;;;;2195170;67;2005;-24
2023/11/15 10:17:20;;;;;;;;;;;;;;;;;;2196547;59;2112;-24
2023/11/15 10:19:51;;;;;;;;;;;;;;;;;;2194935;67;1849;-25
2023/11/15 10:22:22;;;;;;;;;;;;;;;;;;2196742;59;2207;-25
2023/11/15 10:25:05;;;;;;;;;;;;;;;;;;2195363;67;2756;-25
2023/11/15 10:27:37;;;;;;;;;;;;;;;;;;2195508;59;2266;-25
2023/11/15 10:30:22;;;;;;;;;;;;;;;;;;2197486;59;2422;-25
2023/11/15 10:33:07;;;;;;;;;;;;;;;;;;2196315;59;2845;-25
2023/11/15 10:35:38;;;;;;;;;;;;;;;;;;2195605;59;2456;-25
2023/11/15 10:38:14;;;;;;;;;;;;;;;;;;2197302;59;2467;-25
2023/11/15 10:40:46;;;;;;;;;;;;;;;;;;2196258;59;2452;-25
2023/11/15 10:43:17;;;;;;;;;;;;;;;;;;2197753;59;2659;-25
2023/11/15 10:45:50;;;;;;;;;;;;;;;;;;2196263;59;2178;-25
2023/11/15 10:48:22;;;;;;;;;;;;;;;;;;2197331;67;1844;-25
2023/11/15 10:50:55;;;;;;;;;;;;;;;;;;2195413;59;3252;-25
2023/11/15 10:53:27;;;;;;;;;;;;;;;;;;2197338;59;2860;-25
2023/11/15 10:55:58;;;;;;;;;;;;;;;;;;2195625;59;2863;-25
2023/11/15 10:58:29;;;;;;;;;;;;;;;;;;2196731;59;2034;-25
2023/11/15 11:01:01;;;;;;;;;;;;;;;;;;2195572;59;2324;-25
2023/11/15 11:03:32;;;;;;;;;;;;;;;;;;2196925;59;2181;-25
2023/11/15 11:06:15;;;;;;;;;;;;;;;;;;2195799;59;2390;-25
2023/11/15 11:08:54;;;;;;;;;;;;;;;;;;2195750;59;1836;-25
2023/11/15 11:11:43;;;;;;;;;;;;;;;;;;2197721;59;3129;-25
2023/11/15 11:14:14;;;;;;;;;;;;;;;;;;2197514;59;1987;-25
2023/11/15 11:16:44;;;;;;;;;;;;;;;;;;2194634;59;2178;-25
2023/11/15 11:19:25;;;;;;;;;;;;;;;;;;2197920;67;2693;-25
2023/11/15 11:22:06;;;;;;;;;;;;;;;;;;2199196;59;2065;-25
2023/11/15 11:24:45;;;;;;;;;;;;;;;;;;2195744;59;2146;-25
2023/11/15 11:27:15;;;;;;;;;;;;;;;;;;2193322;59;2440;-24
2023/11/15 11:29:48;;;;;;;;;;;;;;;;;;2193643;59;2782;-25
2023/11/15 11:32:20;;;;;;;;;;;;;;;;;;2196332;59;1923;-25
2023/11/15 11:35:00;;;;;;;;;;;;;;;;;;2193473;59;2306;-25
2023/11/15 11:37:36;;;;;;;;;;;;;;;;;;2196811;59;2274;-25
2023/11/15 11:40:07;;;;;;;;;;;;;;;;;;2197040;59;2295;-25
2023/11/15 11:42:37;;;;;;;;;;;;;;;;;;2196428;67;1923;-25
2023/11/15 11:45:08;;;;;;;;;;;;;;;;;;2196320;59;2238;-25
2023/11/15 11:47:39;;;;;;;;;;;;;;;;;;2197084;67;2138;-25
2023/11/15 11:50:09;;;;;;;;;;;;;;;;;;2197444;67;2039;-25
2023/11/15 11:52:40;;;;;;;;;;;;;;;;;;2196100;67;2721;-24
2023/11/15 11:55:11;;;;;;;;;;;;;;;;;;2196765;59;2087;-25
2023/11/15 11:57:41;;;;;;;;;;;;;;;;;;2196962;67;2861;-25
2023/11/15 12:00:12;;;;;;;;;;;;;;;;;;2196812;67;2699;-25
2023/11/15 12:02:43;;;;;;;;;;;;;;;;;;2197073;59;2537;-25
2023/11/15 12:05:14;;;;;;;;;;;;;;;;;;2197444;67;1689;-25
2023/11/15 12:07:48;;;;;;;;;;;;;;;;;;2197253;67;2265;-25
2023/11/15 12:10:18;;;;;;;;;;;;;;;;;;2197529;67;2475;-25
2023/11/15 12:12:54;;;;;;;;;;;;;;;;;;2196904;59;1986;-25
2023/11/15 12:15:25;;;;;;;;;;;;;;;;;;2197199;59;1895;-25
2023/11/15 12:17:56;;;;;;;;;;;;;;;;;;2196123;59;1931;-24
2023/11/15 12:20:33;;;;;;;;;;;;;;;;;;2196940;67;2931;-25
2023/11/15 12:23:10;;;;;;;;;;;;;;;;;;2196606;67;2043;-24
2023/11/15 12:25:51;;;;;;;;;;;;;;;;;;2195587;67;3248;-24
2023/11/15 12:28:23;;;;;;;;;;;;;;;;;;2197087;59;3223;-24
2023/11/15 12:30:55;;;;;;;;;;;;;;;;;;2196521;59;3391;-24
2023/11/15 12:33:26;;;;;;;;;;;;;;;;;;2196666;59;2024;-24
2023/11/15 12:35:56;;;;;;;;;;;;;;;;;;2195731;59;2164;-24
2023/11/15 12:38:26;;;;;;;;;;;;;;;;;;2197520;59;2832;-24
2023/11/15 12:41:01;;;;;;;;;;;;;;;;;;2195781;59;2721;-24
2023/11/15 12:43:31;;;;;;;;;;;;;;;;;;2196745;59;2023;-23
2023/11/15 12:46:13;;;;;;;;;;;;;;;;;;2195397;67;2580;-23
2023/11/15 12:48:47;;;;;;;;;;;;;;;;;;2196576;59;2015;-23
2023/11/15 12:51:18;;;;;;;;;;;;;;;;;;2196921;67;4020;-23
2023/11/15 12:53:48;;;;;;;;;;;;;;;;;;2194986;59;2156;-23
2023/11/15 12:56:19;;;;;;;;;;;;;;;;;;2197223;67;2043;-23
2023/11/15 12:58:51;;;;;;;;;;;;;;;;;;2196713;60;2283;-24
2023/11/15 13:01:21;;;;;;;;;;;;;;;;;;2195528;67;2765;-25
2023/11/15 13:03:55;;;;;;;;;;;;;;;;;;2197499;59;1865;-25
2023/11/15 13:06:26;;;;;;;;;;;;;;;;;;2196970;67;1912;-25
2023/11/15 13:09:00;;;;;;;;;;;;;;;;;;2196510;67;2960;-25
2023/11/15 13:11:30;;;;;;;;;;;;;;;;;;2197457;67;2657;-25
2023/11/15 13:14:00;;;;;;;;;;;;;;;;;;2196922;67;2619;-25
2023/11/15 13:16:32;;;;;;;;;;;;;;;;;;2196407;67;1800;-28
2023/11/15 13:19:03;;;;;;;;;;;;;;;;;;2196990;67;2893;-26
2023/11/15 13:21:33;;;;;;;;;;;;;;;;;;2197176;67;1800;-25
2023/11/15 13:24:03;;;;;;;;;;;;;;;;;;2196799;59;1940;-25
2023/11/15 13:26:33;;;;;;;;;;;;;;;;;;2196823;67;2497;-25
2023/11/15 13:29:04;;;;;;;;;;;;;;;;;;2195095;59;2552;-25
2023/11/15 13:31:34;;;;;;;;;;;;;;;;;;2196708;67;2544;-25
2023/11/15 13:34:04;;;;;;;;;;;;;;;;;;2196265;59;3386;-25
2023/11/15 13:36:34;;;;;;;;;;;;;;;;;;2197123;59;1914;-25
2023/11/15 13:39:05;;;;;;;;;;;;;;;;;;2195732;59;2037;-25
2023/11/15 13:41:35;;;;;;;;;;;;;;;;;;2197050;59;1826;-25
2023/11/15 13:44:05;;;;;;;;;;;;;;;;;;2195843;59;2726;-25
2023/11/15 13:46:37;;;;;;;;;;;;;;;;;;2196331;59;2259;-25
2023/11/15 13:49:08;;;;;;;;;;;;;;;;;;2196860;67;2289;-25
2023/11/15 13:51:38;;;;;;;;;;;;;;;;;;2196351;59;2194;-25
2023/11/15 13:54:09;;;;;;;;;;;;;;;;;;2193190;67;1989;-25
2023/11/15 13:56:40;;;;;;;;;;;;;;;;;;2196064;59;2246;-25
2023/11/15 13:59:10;;;;;;;;;;;;;;;;;;2196312;67;2948;-25
2023/11/15 14:01:41;;;;;;;;;;;;;;;;;;2196488;59;2454;-25
2023/11/15 14:04:11;;;;;;;;;;;;;;;;;;2196292;59;1855;-25
2023/11/15 14:06:41;;;;;;;;;;;;;;;;;;2196292;59;2342;-25
2023/11/15 14:09:13;;;;;;;;;;;;;;;;;;2196069;67;2175;-25
2023/11/15 14:11:46;;;;;;;;;;;;;;;;;;2196344;59;2127;-25
2023/11/15 14:14:17;;;;;;;;;;;;;;;;;;2196364;67;2275;-25
2023/11/15 14:16:47;;;;;;;;;;;;;;;;;;2195703;67;2032;-25
2023/11/15 14:19:19;;;;;;;;;;;;;;;;;;2196247;59;2429;-25
2023/11/15 14:21:49;;;;;;;;;;;;;;;;;;2195399;67;2204;-26
2023/11/15 14:24:20;;;;;;;;;;;;;;;;;;2196730;59;2949;-27
2023/11/15 14:26:50;;;;;;;;;;;;;;;;;;2196347;59;2552;-26
2023/11/15 14:29:21;;;;;;;;;;;;;;;;;;2192625;59;2459;-26
2023/11/15 14:31:52;;;;;;;;;;;;;;;;;;2196601;59;1760;-25
2023/11/15 14:34:22;;;;;;;;;;;;;;;;;;2196086;59;2308;-24
2023/11/15 14:36:54;;;;;;;;;;;;;;;;;;2195527;59;2327;-24
2023/11/15 14:39:25;;;;;;;;;;;;;;;;;;2194293;59;2052;-24
2023/11/15 14:41:57;;;;;;;;;;;;;;;;;;2196534;59;2574;-25
2023/11/15 14:44:28;;;;;;;;;;;;;;;;;;2196850;59;2062;-24
2023/11/15 14:46:58;;;;;;;;;;;;;;;;;;2195336;59;2472;-24
2023/11/15 14:49:29;;;;;;;;;;;;;;;;;;2197483;67;1790;-24
2023/11/15 14:52:07;;;;;;;;;;;;;;;;;;2196193;59;2473;-24
2023/11/15 14:54:41;;;;;;;;;;;;;;;;;;2197354;59;3229;-24
2023/11/15 14:57:12;;;;;;;;;;;;;;;;;;2194861;59;2826;-24
2023/11/15 14:59:42;;;;;;;;;;;;;;;;;;2196924;67;1820;-24
2023/11/15 15:02:13;;;;;;;;;;;;;;;;;;2196513;59;2108;-24
2023/11/15 15:04:43;;;;;;;;;;;;;;;;;;2196585;59;2445;-24
2023/11/15 15:07:14;;;;;;;;;;;;;;;;;;2195964;59;2411;-24
2023/11/15 15:09:44;;;;;;;;;;;;;;;;;;2197593;60;1840;-24
2023/11/15 15:12:14;;;;;;;;;;;;;;;;;;2196082;59;2514;-25
2023/11/15 15:14:45;;;;;;;;;;;;;;;;;;2197264;67;2042;-25
2023/11/15 15:17:16;;;;;;;;;;;;;;;;;;2197192;67;2332;-26
2023/11/15 15:19:46;;;;;;;;;;;;;;;;;;2197704;59;2258;-25
2023/11/15 15:22:17;;;;;;;;;;;;;;;;;;2197442;67;2039;-26
2023/11/15 15:24:48;;;;;;;;;;;;;;;;;;2196703;59;2017;-25
2023/11/15 15:27:19;;;;;;;;;;;;;;;;;;2196338;59;2581;-26
2023/11/15 15:29:49;;;;;;;;;;;;;;;;;;2195827;59;2417;-26
2023/11/15 15:32:19;;;;;;;;;;;;;;;;;;2196382;59;2666;-24
2023/11/15 15:34:49;;;;;;;;;;;;;;;;;;2196153;59;2148;-24
2023/11/15 15:37:20;;;;;;;;;;;;;;;;;;2196494;59;2306;-26
2023/11/15 15:39:50;;;;;;;;;;;;;;;;;;2196622;59;2670;-26
2023/11/15 15:42:21;;;;;;;;;;;;;;;;;;2198341;59;2292;-26
2023/11/15 15:44:52;;;;;;;;;;;;;;;;;;2198370;59;2326;-26
2023/11/15 15:47:22;;;;;;;;;;;;;;;;;;2198803;59;2482;-26
2023/11/15 15:49:53;;;;;;;;;;;;;;;;;;2198699;67;2186;-26
2023/11/15 15:52:25;;;;;;;;;;;;;;;;;;2198830;59;1889;-26
2023/11/15 15:54:55;;;;;;;;;;;;;;;;;;2199710;67;2000;-24
2023/11/15 15:57:26;;;;;;;;;;;;;;;;;;2197879;59;2238;-24
2023/11/15 15:59:56;;;;;;;;;;;;;;;;;;2197935;67;1763;-25
2023/11/15 16:02:27;;;;;;;;;;;;;;;;;;2196944;59;2240;-25
2023/11/15 16:04:57;;;;;;;;;;;;;;;;;;2197241;67;2625;-26
2023/11/15 16:07:27;;;;;;;;;;;;;;;;;;2195312;59;2083;-26
2023/11/15 16:10:00;;;;;;;;;;;;;;;;;;2198240;59;2151;-26
2023/11/15 16:12:31;;;;;;;;;;;;;;;;;;2199543;67;2071;-26
2023/11/15 16:15:02;;;;;;;;;;;;;;;;;;2194748;59;2525;-26
2023/11/15 16:17:35;;;;;;;;;;;;;;;;;;2195197;59;2450;-26
2023/11/15 16:20:07;;;;;;;;;;;;;;;;;;2196703;59;3507;-26
2023/11/15 16:22:37;;;;;;;;;;;;;;;;;;2197703;59;2632;-26
2023/11/15 16:25:08;;;;;;;;;;;;;;;;;;2197992;67;2761;-26
2023/11/15 16:27:38;;;;;;;;;;;;;;;;;;2197402;59;2588;-26
2023/11/15 16:30:13;;;;;;;;;;;;;;;;;;2197680;59;2403;-26
2023/11/15 16:32:43;;;;;;;;;;;;;;;;;;2197309;59;1907;-26
2023/11/15 16:35:14;;;;;;;;;;;;;;;;;;2196298;67;2146;-24
2023/11/15 16:37:44;;;;;;;;;;;;;;;;;;2196377;59;1998;-23
2023/11/15 16:40:15;;;;;;;;;;;;;;;;;;2197239;59;2542;-25
2023/11/15 16:42:45;;;;;;;;;;;;;;;;;;2197124;67;1920;-26
2023/11/15 16:45:17;;;;;;;;;;;;;;;;;;2197148;59;1973;-26
2023/11/15 16:47:47;;;;;;;;;;;;;;;;;;2196628;59;2608;-26
2023/11/15 16:50:17;;;;;;;;;;;;;;;;;;2196823;59;2677;-26
2023/11/15 16:52:49;;;;;;;;;;;;;;;;;;2198159;67;1809;-26
2023/11/15 16:55:20;;;;;;;;;;;;;;;;;;2195800;59;2799;-26
2023/11/15 16:57:51;;;;;;;;;;;;;;;;;;2198215;67;2376;-26
2023/11/15 17:00:21;;;;;;;;;;;;;;;;;;2194681;67;2469;-26
2023/11/15 17:02:51;;;;;;;;;;;;;;;;;;2196645;59;1883;-26
2023/11/15 17:05:22;;;;;;;;;;;;;;;;;;2196877;67;2082;-26
2023/11/15 17:07:52;;;;;;;;;;;;;;;;;;2197084;67;2048;-26
2023/11/15 17:10:23;;;;;;;;;;;;;;;;;;2195718;67;1930;-26
2023/11/15 17:12:53;;;;;;;;;;;;;;;;;;2198346;67;1942;-26
2023/11/15 17:15:23;;;;;;;;;;;;;;;;;;2196780;64;1933;-26
2023/11/15 17:17:54;;;;;;;;;;;;;;;;;;2197608;67;1864;-26
2023/11/15 17:20:24;;;;;;;;;;;;;;;;;;2196542;67;2299;-25
2023/11/15 17:22:54;;;;;;;;;;;;;;;;;;2196939;67;2835;-26
2023/11/15 17:25:25;;;;;;;;;;;;;;;;;;2196203;67;1854;-25
2023/11/15 17:27:56;;;;;;;;;;;;;;;;;;2196167;59;3022;-26
2023/11/15 17:30:26;;;;;;;;;;;;;;;;;;2196116;59;2283;-26
2023/11/15 17:32:59;;;;;;;;;;;;;;;;;;2197480;59;1330;-26